createdAt,value
2019-03-29T00:03:53.368Z,3
2019-03-29T00:08:53.370Z,2
2019-03-29T00:13:53.385Z,2
2019-03-29T00:18:53.354Z,1
2019-03-29T00:24:06.097Z,2
2019-03-29T00:28:53.337Z,2
2019-03-29T00:33:53.321Z,2
2019-03-29T00:38:53.349Z,3
2019-03-29T00:43:53.358Z,2
2019-03-29T00:48:53.334Z,3
2019-03-29T00:53:53.314Z,3
2019-03-29T00:58:53.335Z,1
2019-03-29T01:03:53.319Z,2
2019-03-29T01:08:53.311Z,3
2019-03-29T01:13:53.348Z,2
2019-03-29T01:18:53.276Z,3
2019-03-29T01:23:53.288Z,2
2019-03-29T01:28:53.341Z,2
2019-03-29T01:33:53.280Z,3
2019-03-29T01:38:53.252Z,2
2019-03-29T01:43:53.262Z,2
2019-03-29T01:48:53.255Z,3
2019-03-29T01:53:53.268Z,3
2019-03-29T01:58:53.270Z,2
2019-03-29T02:03:53.251Z,3
2019-03-29T02:08:53.281Z,2
2019-03-29T02:13:53.203Z,3
2019-03-29T02:18:53.239Z,3
2019-03-29T02:23:53.238Z,3
2019-03-29T02:28:53.255Z,2
2019-03-29T02:33:53.225Z,3
2019-03-29T02:38:55.424Z,3
2019-03-29T02:43:53.184Z,3
2019-03-29T02:48:53.206Z,3
2019-03-29T02:53:53.169Z,3
2019-03-29T02:58:53.190Z,3
2019-03-29T03:03:53.196Z,3
2019-03-29T03:08:53.153Z,3
2019-03-29T03:13:53.177Z,3
2019-03-29T03:18:53.205Z,3
2019-03-29T03:23:53.179Z,3
2019-03-29T03:28:53.179Z,3
2019-03-29T03:33:53.159Z,3
2019-03-29T03:38:53.145Z,3
2019-03-29T03:43:53.140Z,3
2019-03-29T03:48:53.104Z,3
2019-03-29T03:53:53.119Z,3
2019-03-29T03:58:53.105Z,3
2019-03-29T04:03:53.086Z,3
2019-03-29T04:08:53.104Z,3
2019-03-29T04:13:53.114Z,3
2019-03-29T04:18:53.131Z,2
2019-03-29T04:23:53.097Z,3
2019-03-29T04:29:03.778Z,3
2019-03-29T04:33:53.086Z,2
2019-03-29T04:38:53.061Z,2
2019-03-29T04:43:53.063Z,3
2019-03-29T04:48:53.098Z,3
2019-03-29T04:53:53.071Z,3
2019-03-29T04:58:53.008Z,2
2019-03-29T05:03:53.068Z,2
2019-03-29T05:08:53.059Z,2
2019-03-29T05:13:53.012Z,2
2019-03-29T05:18:53.027Z,2
2019-03-29T05:23:52.992Z,2
2019-03-29T05:28:53.007Z,2
2019-03-29T05:33:53.007Z,2
2019-03-29T05:38:53.015Z,3
2019-03-29T05:43:53.009Z,2
2019-03-29T05:48:52.954Z,3
2019-03-29T05:53:52.995Z,2
2019-03-29T05:58:52.980Z,2
2019-03-29T06:03:52.957Z,2
2019-03-29T06:08:52.968Z,2
2019-03-29T06:13:52.994Z,3
2019-03-29T06:18:52.960Z,2
2019-03-29T06:23:52.938Z,9
2019-03-29T06:28:52.908Z,5
2019-03-29T06:33:52.944Z,3
2019-03-29T06:38:52.910Z,3
2019-03-29T06:43:52.922Z,3
2019-03-29T06:48:52.913Z,3
2019-03-29T06:53:52.941Z,3
2019-03-29T06:58:52.896Z,2
2019-03-29T07:03:52.942Z,2
2019-03-29T07:08:52.924Z,2
2019-03-29T07:13:57.587Z,1
2019-03-29T07:18:52.922Z,2
2019-03-29T07:23:52.908Z,2
2019-03-29T07:28:52.854Z,2
2019-03-29T07:33:52.905Z,2
2019-03-29T07:38:52.846Z,2
2019-03-29T07:43:52.877Z,2
2019-03-29T07:48:52.851Z,1
2019-03-29T07:53:52.834Z,1
2019-03-29T07:58:52.853Z,1
2019-03-29T08:03:53.316Z,1
2019-03-29T08:08:52.853Z,1
2019-03-29T08:13:54.237Z,0
2019-03-29T08:18:52.856Z,1
2019-03-29T08:23:52.784Z,1
2019-03-29T08:28:52.786Z,1
2019-03-29T08:33:52.811Z,1
2019-03-29T08:38:52.789Z,1
2019-03-29T08:43:52.782Z,1
2019-03-29T08:48:52.767Z,0
2019-03-29T08:53:52.795Z,1
2019-03-29T08:58:52.804Z,1
2019-03-29T09:04:03.162Z,0
2019-03-29T09:08:52.782Z,1
2019-03-29T09:13:52.769Z,0
2019-03-29T09:18:52.803Z,1
2019-03-29T09:23:52.734Z,1
2019-03-29T09:28:52.763Z,1
2019-03-29T09:33:52.741Z,1
2019-03-29T09:38:52.738Z,0
2019-03-29T09:43:54.355Z,1
2019-03-29T09:48:52.739Z,0
2019-03-29T09:53:52.695Z,0
2019-03-29T09:58:52.707Z,1
2019-03-29T10:03:52.720Z,0
2019-03-29T10:08:53.375Z,1
2019-03-29T10:13:52.690Z,0
2019-03-29T10:18:52.669Z,0
2019-03-29T10:23:52.695Z,0
2019-03-29T10:28:52.689Z,1
2019-03-29T10:33:52.666Z,1
2019-03-29T10:38:52.699Z,0
2019-03-29T10:43:52.770Z,0
2019-03-29T10:48:52.643Z,0
2019-03-29T10:53:52.635Z,0
2019-03-29T10:58:52.676Z,1
2019-03-29T11:03:52.627Z,0
2019-03-29T11:08:52.666Z,0
2019-03-29T11:13:52.676Z,0
2019-03-29T11:18:52.646Z,0
2019-03-29T11:23:52.610Z,0
2019-03-29T11:28:52.633Z,0
2019-03-29T11:33:52.647Z,0
2019-03-29T11:38:52.598Z,0
2019-03-29T11:43:52.638Z,0
2019-03-29T11:48:52.603Z,0
2019-03-29T11:53:52.594Z,0
2019-03-29T11:58:52.617Z,0
2019-03-29T12:03:52.628Z,0
2019-03-29T12:08:52.597Z,0
2019-03-29T12:13:52.560Z,0
2019-03-29T12:18:52.624Z,0
2019-03-29T12:23:52.570Z,0
2019-03-29T12:28:52.594Z,0
2019-03-29T12:33:52.585Z,0
2019-03-29T12:38:52.568Z,0
2019-03-29T12:43:55.662Z,0
2019-03-29T12:48:52.549Z,0
2019-03-29T12:53:52.567Z,0
2019-03-29T12:58:52.504Z,0
2019-03-29T13:03:52.557Z,0
2019-03-29T13:08:52.510Z,0
2019-03-29T13:13:52.548Z,0
2019-03-29T13:18:53.754Z,0
2019-03-29T13:23:52.501Z,0
2019-03-29T13:28:52.538Z,0
2019-03-29T13:33:52.514Z,0
2019-03-29T13:38:52.503Z,0
2019-03-29T13:43:52.488Z,0
2019-03-29T13:48:52.497Z,0
2019-03-29T13:53:52.491Z,0
2019-03-29T13:58:52.495Z,0
2019-03-29T14:03:52.515Z,0
2019-03-29T14:08:52.461Z,0
2019-03-29T14:13:52.452Z,0
2019-03-29T14:18:52.470Z,1
2019-03-29T14:23:52.491Z,1
2019-03-29T14:28:52.478Z,1
2019-03-29T14:33:52.525Z,1
2019-03-29T14:38:52.484Z,0
2019-03-29T14:43:52.467Z,0
2019-03-29T14:48:52.425Z,1
2019-03-29T14:53:52.476Z,0
2019-03-29T14:58:52.423Z,1
2019-03-29T15:03:53.748Z,1
2019-03-29T15:08:52.444Z,1
2019-03-29T15:13:52.413Z,1
2019-03-29T15:18:52.450Z,0
2019-03-29T15:23:52.412Z,0
2019-03-29T16:02:36.601Z,1
2019-03-29T16:07:36.613Z,1
2019-03-29T16:12:36.604Z,1
2019-03-29T16:19:00.794Z,0
2019-03-29T16:24:00.774Z,2
2019-03-29T16:29:00.736Z,1
2019-03-29T16:34:00.775Z,1
2019-03-29T16:39:00.749Z,1
2019-03-29T16:44:00.692Z,1
2019-03-29T16:49:00.725Z,2
2019-03-29T16:54:00.703Z,2
2019-03-29T16:59:00.686Z,2
2019-03-29T17:04:00.728Z,2
2019-03-29T17:09:00.695Z,2
2019-03-29T17:14:00.812Z,2
2019-03-29T17:19:00.681Z,2
2019-03-29T17:24:00.731Z,3
2019-03-29T17:29:00.659Z,3
2019-03-29T17:34:00.690Z,4
2019-03-29T17:39:00.639Z,4
2019-03-29T17:44:00.661Z,4
2019-03-29T17:54:13.739Z,4
2019-03-29T17:59:13.727Z,5
2019-03-29T18:04:13.730Z,4
2019-03-29T19:38:16.842Z,4
2019-03-29T19:43:16.841Z,4
2019-03-29T19:48:16.839Z,4
2019-03-29T19:53:16.799Z,3
2019-03-29T19:58:17.038Z,4
2019-03-29T20:03:16.856Z,3
2019-03-29T20:08:16.788Z,3
2019-03-29T20:13:16.817Z,3
2019-03-29T20:18:16.777Z,3
2019-03-29T20:23:16.815Z,3
2019-03-29T20:28:16.810Z,3
2019-03-29T20:33:16.754Z,4
2019-03-29T20:38:16.748Z,5
2019-03-29T20:43:16.788Z,4
2019-03-29T20:48:16.755Z,4
2019-03-29T20:53:16.763Z,4
2019-03-29T20:58:16.763Z,5
2019-03-29T21:03:16.776Z,4
2019-03-29T21:08:16.736Z,3
2019-03-29T21:13:16.710Z,2
2019-03-29T21:18:17.529Z,3
2019-03-29T21:23:16.715Z,3
2019-03-29T21:28:16.696Z,3
2019-03-29T21:33:16.726Z,3
2019-03-29T21:38:16.705Z,3
2019-03-29T21:43:16.676Z,3
2019-03-29T21:48:28.436Z,3
2019-03-29T21:53:16.684Z,2
2019-03-29T21:58:16.657Z,2
2019-03-29T22:38:16.735Z,3
2019-03-29T22:43:16.650Z,5
2019-03-29T22:48:16.634Z,7
2019-03-29T22:53:16.645Z,8
2019-03-29T22:58:16.643Z,8
2019-03-29T23:03:16.622Z,9
2019-03-29T23:08:16.623Z,9
2019-03-29T23:13:16.616Z,7
2019-03-29T23:18:16.635Z,4
2019-03-29T23:23:16.585Z,4
2019-03-29T23:28:16.612Z,2
2019-03-29T23:33:16.566Z,3
2019-03-29T23:38:16.588Z,3
2019-03-29T23:43:16.563Z,2
2019-03-29T23:48:16.601Z,3
2019-03-29T23:53:16.544Z,3
2019-03-29T23:58:16.568Z,2
